Terminal Aerodrome Forecast
Issued by NWS Mt. Holly, NJ

Home | Current Version | Previous Version | Text Only | Print | Product List | Glossary On
Versions: 1 2 3 4 5 6 7 8 9 10 11 12 13 14 15 16 17 18 19 20 21 22 23 24 25 26 27
284
FTUS41 KPHI 101740
TAFACY
TAF
KACY 101740Z 1018/1118 29018G26KT P6SM SCT045
     FM102200 28009KT P6SM BKN040 PROB30 1106/1109 6SM -SHSN BKN045
     FM110900 28013KT P6SM BKN060
     FM111400 29018G28KT P6SM BKN050=

USA.gov is the U.S. government's official web portal to all federal, state and local government web resources and services.